WXForecasting.com
Aberdeen, SD - Weather Station Data
Daily Summary for October 12, 2017 Units:  Both    English   Metric
« Previous Day
Next Day »
Daily Weekly Monthly Yearly Custom
  High: Low: Average:
Temperature: 73.7 °F /  23.2 °C 47.5 °F /  8.6 °C 55.9 °F /  13.3 °C
Dew Point: 50.0 °F /  10 °C 33.0 °F /  0.6 °C 40.9 °F /  4.9 °C
Humidity: 74 % 39 % 58 %
Wind Speed: 18.0 mph /  29 km/h - 5.4 mph /  8.7 km/h
Wind Gust: 24.0 mph /  38.6 km/h - -
Wind:- - SW
Pressure: 30.08 in /  1018.5 hPa 29.73 in /  1006.7 hPa -
Precipitation: 0.00 in /  0 mm    
Historical Graphs
 
 
Tabular Data for October 12, 2017
Time Temperature Dew Point Pressure Wind Wind Speed Wind Gust Humidity Rainfall Rate (Hourly) solar Conditions
00:06 51.8 °F /  11 °C 36.0 °F /  2.2 °C 29.90 in /  1012.4 hPa Calm   13.0 mph /  20.9 km/h 56 % 0.00 in /  0 mm 0 W/m2
00:21 51.8 °F /  11 °C 37.0 °F /  2.8 °C 29.90 in /  1012.4 hPa SE 3.0 mph /  4.8 km/h 11.0 mph /  17.7 km/h 57 % 0.00 in /  0 mm 0 W/m2
00:36 51.5 °F /  10.8 °C 37.0 °F /  2.8 °C 29.90 in /  1012.4 hPa SSW 6.0 mph /  9.7 km/h 9.0 mph /  14.5 km/h 58 % 0.00 in /  0 mm 0 W/m2
00:51 51.4 °F /  10.8 °C 37.0 °F /  2.8 °C 29.90 in /  1012.4 hPa SSW 3.0 mph /  4.8 km/h 10.0 mph /  16.1 km/h 58 % 0.00 in /  0 mm 0 W/m2
01:06 51.4 °F /  10.8 °C 37.0 °F /  2.8 °C 29.90 in /  1012.4 hPa South 7.0 mph /  11.3 km/h 12.0 mph /  19.3 km/h 59 % 0.00 in /  0 mm 0 W/m2
01:21 52.2 °F /  11.2 °C 37.0 °F /  2.8 °C 29.89 in /  1012.1 hPa SSW 5.0 mph /  8 km/h 15.0 mph /  24.1 km/h 57 % 0.00 in /  0 mm 0 W/m2
01:36 52.4 °F /  11.3 °C 37.0 °F /  2.8 °C 29.89 in /  1012.1 hPa SSE 9.0 mph /  14.5 km/h 12.0 mph /  19.3 km/h 57 % 0.00 in /  0 mm 0 W/m2
02:07 51.6 °F /  10.9 °C 37.0 °F /  2.8 °C 29.88 in /  1011.7 hPa South 9.0 mph /  14.5 km/h 15.0 mph /  24.1 km/h 59 % 0.00 in /  0 mm 0 W/m2
02:21 51.1 °F /  10.6 °C 37.0 °F /  2.8 °C 29.87 in /  1011.4 hPa SSE 3.0 mph /  4.8 km/h 10.0 mph /  16.1 km/h 60 % 0.00 in /  0 mm 0 W/m2
02:36 50.6 °F /  10.3 °C 37.0 °F /  2.8 °C 29.87 in /  1011.4 hPa South 1.0 mph /  1.6 km/h 14.0 mph /  22.5 km/h 61 % 0.00 in /  0 mm 0 W/m2
02:51 50.2 °F /  10.1 °C 37.0 °F /  2.8 °C 29.88 in /  1011.7 hPa South 9.0 mph /  14.5 km/h 13.0 mph /  20.9 km/h 62 % 0.00 in /  0 mm 0 W/m2
03:06 49.6 °F /  9.8 °C 37.0 °F /  2.8 °C 29.87 in /  1011.4 hPa South 4.0 mph /  6.4 km/h 13.0 mph /  20.9 km/h 63 % 0.00 in /  0 mm 0 W/m2
03:21 49.1 °F /  9.5 °C 38.0 °F /  3.3 °C 29.87 in /  1011.4 hPa South 5.0 mph /  8 km/h 10.0 mph /  16.1 km/h 65 % 0.00 in /  0 mm 0 W/m2
03:36 48.8 °F /  9.3 °C 38.0 °F /  3.3 °C 29.86 in /  1011.1 hPa South 4.0 mph /  6.4 km/h 10.0 mph /  16.1 km/h 66 % 0.00 in /  0 mm 0 W/m2
04:06 48.7 °F /  9.3 °C 38.0 °F /  3.3 °C 29.85 in /  1010.7 hPa SSW 6.0 mph /  9.7 km/h 10.0 mph /  16.1 km/h 67 % 0.00 in /  0 mm 0 W/m2
04:21 48.2 °F /  9 °C 38.0 °F /  3.3 °C 29.85 in /  1010.7 hPa South 1.0 mph /  1.6 km/h 8.0 mph /  12.9 km/h 68 % 0.00 in /  0 mm 0 W/m2
04:36 48.1 °F /  8.9 °C 38.0 °F /  3.3 °C 29.84 in /  1010.4 hPa ESE 2.0 mph /  3.2 km/h 10.0 mph /  16.1 km/h 69 % 0.00 in /  0 mm 0 W/m2
05:21 47.6 °F /  8.7 °C 39.0 °F /  3.9 °C 29.84 in /  1010.4 hPa SSE 1.0 mph /  1.6 km/h 10.0 mph /  16.1 km/h 71 % 0.00 in /  0 mm 0 W/m2
05:37 47.6 °F /  8.7 °C 39.0 °F /  3.9 °C 29.84 in /  1010.4 hPa South 5.0 mph /  8 km/h 12.0 mph /  19.3 km/h 71 % 0.00 in /  0 mm 0 W/m2
05:52 47.8 °F /  8.8 °C 39.0 °F /  3.9 °C 29.84 in /  1010.4 hPa SE 3.0 mph /  4.8 km/h 14.0 mph /  22.5 km/h 71 % 0.00 in /  0 mm 0 W/m2
06:07 47.8 °F /  8.8 °C 39.0 °F /  3.9 °C 29.84 in /  1010.4 hPa SSE 5.0 mph /  8 km/h 11.0 mph /  17.7 km/h 71 % 0.00 in /  0 mm 0 W/m2
06:22 47.7 °F /  8.7 °C 39.0 °F /  3.9 °C 29.84 in /  1010.4 hPa South 1.0 mph /  1.6 km/h 14.0 mph /  22.5 km/h 72 % 0.00 in /  0 mm 0 W/m2
06:37 47.6 °F /  8.7 °C 39.0 °F /  3.9 °C 29.84 in /  1010.4 hPa SSE 2.0 mph /  3.2 km/h 9.0 mph /  14.5 km/h 72 % 0.00 in /  0 mm 0 W/m2
06:52 47.7 °F /  8.7 °C 39.0 °F /  3.9 °C 29.83 in /  1010 hPa South 2.0 mph /  3.2 km/h 13.0 mph /  20.9 km/h 73 % 0.00 in /  0 mm 0 W/m2
07:08 47.7 °F /  8.7 °C 39.0 °F /  3.9 °C 29.82 in /  1009.7 hPa SSE 1.0 mph /  1.6 km/h 8.0 mph /  12.9 km/h 73 % 0.00 in /  0 mm 0 W/m2
07:22 47.5 °F /  8.6 °C 39.0 °F /  3.9 °C 29.82 in /  1009.7 hPa SSW 5.0 mph /  8 km/h 13.0 mph /  20.9 km/h 73 % 0.00 in /  0 mm 0 W/m2
07:37 47.5 °F /  8.6 °C 39.0 °F /  3.9 °C 29.82 in /  1009.7 hPa SE 4.0 mph /  6.4 km/h 10.0 mph /  16.1 km/h 73 % 0.00 in /  0 mm 0 W/m2
07:52 47.5 °F /  8.6 °C 39.0 °F /  3.9 °C 29.82 in /  1009.7 hPa SSW 2.0 mph /  3.2 km/h 9.0 mph /  14.5 km/h 73 % 0.00 in /  0 mm 9 W/m2
08:07 47.5 °F /  8.6 °C 40.0 °F /  4.4 °C 29.81 in /  1009.4 hPa SSE 7.0 mph /  11.3 km/h 12.0 mph /  19.3 km/h 74 % 0.00 in /  0 mm 16 W/m2
08:22 47.8 °F /  8.8 °C 40.0 °F /  4.4 °C 29.82 in /  1009.7 hPa SSW 2.0 mph /  3.2 km/h 9.0 mph /  14.5 km/h 74 % 0.00 in /  0 mm 25 W/m2
08:37 48.3 °F /  9.1 °C 40.0 °F /  4.4 °C 29.83 in /  1010 hPa SSE 2.0 mph /  3.2 km/h 10.0 mph /  16.1 km/h 73 % 0.00 in /  0 mm 30 W/m2
08:52 49.2 °F /  9.6 °C 41.0 °F /  5 °C 29.82 in /  1009.7 hPa SSW 5.0 mph /  8 km/h 10.0 mph /  16.1 km/h 72 % 0.00 in /  0 mm 128 W/m2
09:07 50.2 °F /  10.1 °C 41.0 °F /  5 °C 29.83 in /  1010 hPa SSW 11.0 mph /  17.7 km/h 15.0 mph /  24.1 km/h 70 % 0.00 in /  0 mm 176 W/m2
09:22 51.1 °F /  10.6 °C 41.0 °F /  5 °C 29.83 in /  1010 hPa South 4.0 mph /  6.4 km/h 17.0 mph /  27.4 km/h 69 % 0.00 in /  0 mm 223 W/m2
09:37 52.2 °F /  11.2 °C 42.0 °F /  5.6 °C 29.82 in /  1009.7 hPa South 10.0 mph /  16.1 km/h 18.0 mph /  29 km/h 68 % 0.00 in /  0 mm 264 W/m2
09:52 53.6 °F /  12 °C 43.0 °F /  6.1 °C 29.82 in /  1009.7 hPa South 4.0 mph /  6.4 km/h 12.0 mph /  19.3 km/h 67 % 0.00 in /  0 mm 301 W/m2
10:07 54.9 °F /  12.7 °C 44.0 °F /  6.7 °C 29.81 in /  1009.4 hPa SSW 3.0 mph /  4.8 km/h 17.0 mph /  27.4 km/h 67 % 0.00 in /  0 mm 338 W/m2
10:22 55.0 °F /  12.8 °C 43.0 °F /  6.1 °C 29.81 in /  1009.4 hPa SSE 11.0 mph /  17.7 km/h 16.0 mph /  25.7 km/h 65 % 0.00 in /  0 mm 371 W/m2
10:38 55.5 °F /  13.1 °C 43.0 °F /  6.1 °C 29.81 in /  1009.4 hPa SSE 5.0 mph /  8 km/h 24.0 mph /  38.6 km/h 64 % 0.00 in /  0 mm 404 W/m2
10:52 56.3 °F /  13.5 °C 44.0 °F /  6.7 °C 29.80 in /  1009 hPa SW 7.0 mph /  11.3 km/h 18.0 mph /  29 km/h 64 % 0.00 in /  0 mm 436 W/m2
11:08 57.7 °F /  14.3 °C 45.0 °F /  7.2 °C 29.80 in /  1009 hPa South 4.0 mph /  6.4 km/h 13.0 mph /  20.9 km/h 63 % 0.00 in /  0 mm 466 W/m2
11:23 58.0 °F /  14.4 °C 45.0 °F /  7.2 °C 29.79 in /  1008.7 hPa South 4.0 mph /  6.4 km/h 20.0 mph /  32.2 km/h 63 % 0.00 in /  0 mm 346 W/m2
11:38 59.5 °F /  15.3 °C 45.0 °F /  7.2 °C 29.79 in /  1008.7 hPa South 7.0 mph /  11.3 km/h 17.0 mph /  27.4 km/h 60 % 0.00 in /  0 mm 513 W/m2
11:53 59.6 °F /  15.3 °C 45.0 °F /  7.2 °C 29.78 in /  1008.4 hPa South 13.0 mph /  20.9 km/h 20.0 mph /  32.2 km/h 59 % 0.00 in /  0 mm 533 W/m2
12:08 61.1 °F /  16.2 °C 46.0 °F /  7.8 °C 29.79 in /  1008.7 hPa SSW 15.0 mph /  24.1 km/h 17.0 mph /  27.4 km/h 57 % 0.00 in /  0 mm 547 W/m2
12:23 61.8 °F /  16.6 °C 46.0 °F /  7.8 °C 29.77 in /  1008 hPa SSW 8.0 mph /  12.9 km/h 21.0 mph /  33.8 km/h 57 % 0.00 in /  0 mm 559 W/m2
12:38 62.5 °F /  16.9 °C 46.0 °F /  7.8 °C 29.77 in /  1008 hPa SE 4.0 mph /  6.4 km/h 18.0 mph /  29 km/h 56 % 0.00 in /  0 mm 570 W/m2
12:53 63.4 °F /  17.4 °C 47.0 °F /  8.3 °C 29.77 in /  1008 hPa South 7.0 mph /  11.3 km/h 17.0 mph /  27.4 km/h 55 % 0.00 in /  0 mm 566 W/m2
13:08 64.3 °F /  17.9 °C 47.0 °F /  8.3 °C 29.77 in /  1008 hPa South 18.0 mph /  29 km/h 21.0 mph /  33.8 km/h 54 % 0.00 in /  0 mm 577 W/m2
13:23 64.3 °F /  17.9 °C 47.0 °F /  8.3 °C 29.76 in /  1007.7 hPa South 14.0 mph /  22.5 km/h 21.0 mph /  33.8 km/h 54 % 0.00 in /  0 mm 547 W/m2
13:38 64.7 °F /  18.2 °C 47.0 °F /  8.3 °C 29.76 in /  1007.7 hPa SSW 8.0 mph /  12.9 km/h 17.0 mph /  27.4 km/h 54 % 0.00 in /  0 mm 526 W/m2
13:53 64.9 °F /  18.3 °C 47.0 °F /  8.3 °C 29.75 in /  1007.3 hPa South 10.0 mph /  16.1 km/h 20.0 mph /  32.2 km/h 53 % 0.00 in /  0 mm 564 W/m2
14:08 64.9 °F /  18.3 °C 48.0 °F /  8.9 °C 29.75 in /  1007.3 hPa South 3.0 mph /  4.8 km/h 15.0 mph /  24.1 km/h 55 % 0.00 in /  0 mm 654 W/m2
14:23 66.7 °F /  19.3 °C 49.0 °F /  9.4 °C 29.75 in /  1007.3 hPa SSE 5.0 mph /  8 km/h 16.0 mph /  25.7 km/h 53 % 0.00 in /  0 mm 564 W/m2
14:38 68.0 °F /  20 °C 49.0 °F /  9.4 °C 29.75 in /  1007.3 hPa SSE 9.0 mph /  14.5 km/h 23.0 mph /  37 km/h 51 % 0.00 in /  0 mm 686 W/m2
14:53 67.0 °F /  19.4 °C 49.0 °F /  9.4 °C 29.74 in /  1007 hPa SW 9.0 mph /  14.5 km/h 22.0 mph /  35.4 km/h 53 % 0.00 in /  0 mm 613 W/m2
15:08 69.1 °F /  20.6 °C 49.0 °F /  9.4 °C 29.74 in /  1007 hPa SSW 11.0 mph /  17.7 km/h 17.0 mph /  27.4 km/h 49 % 0.00 in /  0 mm 582 W/m2
15:23 70.3 °F /  21.3 °C 50.0 °F /  10 °C 29.74 in /  1007 hPa SW 6.0 mph /  9.7 km/h 17.0 mph /  27.4 km/h 49 % 0.00 in /  0 mm 473 W/m2
15:38 71.0 °F /  21.7 °C 50.0 °F /  10 °C 29.74 in /  1007 hPa SW 7.0 mph /  11.3 km/h 17.0 mph /  27.4 km/h 47 % 0.00 in /  0 mm 482 W/m2
15:54 71.7 °F /  22.1 °C 49.0 °F /  9.4 °C 29.73 in /  1006.7 hPa South 5.0 mph /  8 km/h 19.0 mph /  30.6 km/h 44 % 0.00 in /  0 mm 276 W/m2
16:09 72.6 °F /  22.6 °C 49.0 °F /  9.4 °C 29.74 in /  1007 hPa South 12.0 mph /  19.3 km/h 17.0 mph /  27.4 km/h 44 % 0.00 in /  0 mm 374 W/m2
16:24 73.0 °F /  22.8 °C 48.0 °F /  8.9 °C 29.75 in /  1007.3 hPa SSW 7.0 mph /  11.3 km/h 18.0 mph /  29 km/h 41 % 0.00 in /  0 mm 330 W/m2
16:39 73.7 °F /  23.2 °C 48.0 °F /  8.9 °C 29.75 in /  1007.3 hPa SW 5.0 mph /  8 km/h 17.0 mph /  27.4 km/h 40 % 0.00 in /  0 mm 292 W/m2
16:54 69.0 °F /  20.6 °C 43.0 °F /  6.1 °C 29.77 in /  1008 hPa WSW 9.0 mph /  14.5 km/h 22.0 mph /  35.4 km/h 39 % 0.00 in /  0 mm 255 W/m2
17:09 66.4 °F /  19.1 °C 42.0 °F /  5.6 °C 29.79 in /  1008.7 hPa East 9.0 mph /  14.5 km/h 19.0 mph /  30.6 km/h 42 % 0.00 in /  0 mm 213 W/m2
17:24 63.7 °F /  17.6 °C 44.0 °F /  6.7 °C 29.81 in /  1009.4 hPa NW 5.0 mph /  8 km/h 18.0 mph /  29 km/h 49 % 0.00 in /  0 mm 167 W/m2
17:39 62.8 °F /  17.1 °C 44.0 °F /  6.7 °C 29.82 in /  1009.7 hPa NNE 8.0 mph /  12.9 km/h 19.0 mph /  30.6 km/h 50 % 0.00 in /  0 mm 120 W/m2
17:54 61.4 °F /  16.3 °C 43.0 °F /  6.1 °C 29.84 in /  1010.4 hPa North 5.0 mph /  8 km/h 13.0 mph /  20.9 km/h 51 % 0.00 in /  0 mm 76 W/m2
18:09 60.4 °F /  15.8 °C 42.0 °F /  5.6 °C 29.85 in /  1010.7 hPa SE 5.0 mph /  8 km/h 18.0 mph /  29 km/h 52 % 0.00 in /  0 mm 40 W/m2
18:24 59.5 °F /  15.3 °C 42.0 °F /  5.6 °C 29.87 in /  1011.4 hPa NW 4.0 mph /  6.4 km/h 14.0 mph /  22.5 km/h 53 % 0.00 in /  0 mm 16 W/m2
18:39 58.7 °F /  14.8 °C 42.0 °F /  5.6 °C 29.88 in /  1011.7 hPa WNW 1.0 mph /  1.6 km/h 9.0 mph /  14.5 km/h 54 % 0.00 in /  0 mm 11 W/m2
18:54 58.2 °F /  14.6 °C 42.0 °F /  5.6 °C 29.89 in /  1012.1 hPa WNW 2.0 mph /  3.2 km/h 12.0 mph /  19.3 km/h 55 % 0.00 in /  0 mm 5 W/m2
19:09 57.7 °F /  14.3 °C 42.0 °F /  5.6 °C 29.91 in /  1012.8 hPa NW 5.0 mph /  8 km/h 16.0 mph /  25.7 km/h 56 % 0.00 in /  0 mm 0 W/m2
19:24 57.1 °F /  13.9 °C 41.0 °F /  5 °C 29.91 in /  1012.8 hPa West 4.0 mph /  6.4 km/h 14.0 mph /  22.5 km/h 56 % 0.00 in /  0 mm 0 W/m2
19:39 56.4 °F /  13.6 °C 40.0 °F /  4.4 °C 29.93 in /  1013.4 hPa NW 5.0 mph /  8 km/h 16.0 mph /  25.7 km/h 55 % 0.00 in /  0 mm 0 W/m2
19:54 55.8 °F /  13.2 °C 40.0 °F /  4.4 °C 29.96 in /  1014.4 hPa NW 4.0 mph /  6.4 km/h 15.0 mph /  24.1 km/h 56 % 0.00 in /  0 mm 0 W/m2
20:09 55.0 °F /  12.8 °C 40.0 °F /  4.4 °C 29.96 in /  1014.4 hPa NW 5.0 mph /  8 km/h 9.0 mph /  14.5 km/h 57 % 0.00 in /  0 mm 0 W/m2
20:24 54.5 °F /  12.5 °C 39.0 °F /  3.9 °C 29.97 in /  1014.8 hPa NW 2.0 mph /  3.2 km/h 13.0 mph /  20.9 km/h 57 % 0.00 in /  0 mm 0 W/m2
20:39 54.4 °F /  12.4 °C 36.0 °F /  2.2 °C 29.98 in /  1015.1 hPa NW 4.0 mph /  6.4 km/h 16.0 mph /  25.7 km/h 51 % 0.00 in /  0 mm 0 W/m2
20:54 54.2 °F /  12.3 °C 36.0 °F /  2.2 °C 29.98 in /  1015.1 hPa NNW 4.0 mph /  6.4 km/h 14.0 mph /  22.5 km/h 50 % 0.00 in /  0 mm 0 W/m2
21:09 53.9 °F /  12.2 °C 35.0 °F /  1.7 °C 29.99 in /  1015.5 hPa NNW 4.0 mph /  6.4 km/h 11.0 mph /  17.7 km/h 49 % 0.00 in /  0 mm 0 W/m2
21:24 53.5 °F /  11.9 °C 34.0 °F /  1.1 °C 30.00 in /  1015.8 hPa NNW 9.0 mph /  14.5 km/h 12.0 mph /  19.3 km/h 48 % 0.00 in /  0 mm 0 W/m2
21:39 53.1 °F /  11.7 °C 34.0 °F /  1.1 °C 30.02 in /  1016.5 hPa SW 6.0 mph /  9.7 km/h 12.0 mph /  19.3 km/h 48 % 0.00 in /  0 mm 0 W/m2
21:54 53.1 °F /  11.7 °C 34.0 °F /  1.1 °C 30.03 in /  1016.8 hPa NW 1.0 mph /  1.6 km/h 12.0 mph /  19.3 km/h 48 % 0.00 in /  0 mm 0 W/m2
22:09 53.0 °F /  11.7 °C 34.0 °F /  1.1 °C 30.04 in /  1017.2 hPa North 3.0 mph /  4.8 km/h 12.0 mph /  19.3 km/h 49 % 0.00 in /  0 mm 0 W/m2
22:24 52.4 °F /  11.3 °C 34.0 °F /  1.1 °C 30.04 in /  1017.2 hPa NW 5.0 mph /  8 km/h 15.0 mph /  24.1 km/h 50 % 0.00 in /  0 mm 0 W/m2
22:39 51.7 °F /  10.9 °C 34.0 °F /  1.1 °C 30.06 in /  1017.8 hPa NW 2.0 mph /  3.2 km/h 8.0 mph /  12.9 km/h 51 % 0.00 in /  0 mm 0 W/m2
22:54 50.8 °F /  10.4 °C 34.0 °F /  1.1 °C 30.06 in /  1017.8 hPa NW 3.0 mph /  4.8 km/h 6.0 mph /  9.7 km/h 53 % 0.00 in /  0 mm 0 W/m2
23:09 49.9 °F /  9.9 °C 34.0 °F /  1.1 °C 30.06 in /  1017.8 hPa NW 2.0 mph /  3.2 km/h 8.0 mph /  12.9 km/h 54 % 0.00 in /  0 mm 0 W/m2
23:25 49.7 °F /  9.8 °C 33.0 °F /  0.6 °C 30.07 in /  1018.2 hPa NW 3.0 mph /  4.8 km/h 15.0 mph /  24.1 km/h 53 % 0.00 in /  0 mm 0 W/m2
23:39 49.3 °F /  9.6 °C 33.0 °F /  0.6 °C 30.07 in /  1018.2 hPa NNW 6.0 mph /  9.7 km/h 11.0 mph /  17.7 km/h 54 % 0.00 in /  0 mm 0 W/m2
23:54 48.8 °F /  9.3 °C 33.0 °F /  0.6 °C 30.08 in /  1018.5 hPa NNW 4.0 mph /  6.4 km/h 8.0 mph /  12.9 km/h 55 % 0.00 in /  0 mm 0 W/m2
Compliments of Weather Underground - 1 mb